sensor_id;sensor_type;location;lat;lon;timestamp;P1;durP1;ratioP1;P2;durP2;ratioP2
14770;SDS011;7477;45.222;5.688;2023-03-01T00:01:30;15.87;;;10.60;;
14770;SDS011;7477;45.222;5.688;2023-03-01T00:04:49;12.70;;;10.50;;
14770;SDS011;7477;45.222;5.688;2023-03-01T00:08:09;14.53;;;10.17;;
14770;SDS011;7477;45.222;5.688;2023-03-01T00:11:29;17.90;;;11.10;;
14770;SDS011;7477;45.222;5.688;2023-03-01T00:14:50;16.73;;;11.10;;
14770;SDS011;7477;45.222;5.688;2023-03-01T00:18:09;15.13;;;11.13;;
14770;SDS011;7477;45.222;5.688;2023-03-01T00:21:28;13.87;;;10.03;;
14770;SDS011;7477;45.222;5.688;2023-03-01T00:24:47;16.77;;;10.97;;
14770;SDS011;7477;45.222;5.688;2023-03-01T00:28:07;15.07;;;10.97;;
14770;SDS011;7477;45.222;5.688;2023-03-01T00:31:28;14.53;;;10.63;;
14770;SDS011;7477;45.222;5.688;2023-03-01T00:34:49;17.10;;;10.93;;
14770;SDS011;7477;45.222;5.688;2023-03-01T00:38:14;19.73;;;11.33;;
14770;SDS011;7477;45.222;5.688;2023-03-01T00:41:33;14.17;;;10.87;;
14770;SDS011;7477;45.222;5.688;2023-03-01T00:44:53;16.00;;;11.00;;
14770;SDS011;7477;45.222;5.688;2023-03-01T00:48:12;15.67;;;11.00;;
14770;SDS011;7477;45.222;5.688;2023-03-01T00:51:32;13.63;;;9.50;;
14770;SDS011;7477;45.222;5.688;2023-03-01T00:54:52;15.97;;;9.97;;
14770;SDS011;7477;45.222;5.688;2023-03-01T00:58:11;13.00;;;9.80;;
14770;SDS011;7477;45.222;5.688;2023-03-01T01:01:30;20.13;;;11.60;;
14770;SDS011;7477;45.222;5.688;2023-03-01T01:04:50;15.30;;;10.73;;
14770;SDS011;7477;45.222;5.688;2023-03-01T01:08:09;14.43;;;10.40;;
14770;SDS011;7477;45.222;5.688;2023-03-01T01:11:28;14.57;;;10.07;;
14770;SDS011;7477;45.222;5.688;2023-03-01T01:14:48;13.17;;;10.10;;
14770;SDS011;7477;45.222;5.688;2023-03-01T01:18:08;17.37;;;11.33;;
14770;SDS011;7477;45.222;5.688;2023-03-01T01:21:28;13.43;;;10.37;;
14770;SDS011;7477;45.222;5.688;2023-03-01T01:24:48;14.93;;;10.73;;
14770;SDS011;7477;45.222;5.688;2023-03-01T01:28:07;20.00;;;11.73;;
14770;SDS011;7477;45.222;5.688;2023-03-01T01:31:26;14.00;;;10.80;;
14770;SDS011;7477;45.222;5.688;2023-03-01T01:34:47;13.93;;;10.70;;
14770;SDS011;7477;45.222;5.688;2023-03-01T01:38:06;17.10;;;11.40;;
14770;SDS011;7477;45.222;5.688;2023-03-01T01:41:26;14.07;;;10.70;;
14770;SDS011;7477;45.222;5.688;2023-03-01T01:44:46;16.17;;;11.20;;
14770;SDS011;7477;45.222;5.688;2023-03-01T01:48:13;18.17;;;11.40;;
14770;SDS011;7477;45.222;5.688;2023-03-01T01:51:37;15.47;;;11.50;;
14770;SDS011;7477;45.222;5.688;2023-03-01T01:55:02;15.20;;;11.13;;
14770;SDS011;7477;45.222;5.688;2023-03-01T01:58:30;16.70;;;12.20;;
14770;SDS011;7477;45.222;5.688;2023-03-01T02:01:50;14.60;;;10.93;;
14770;SDS011;7477;45.222;5.688;2023-03-01T02:08:51;13.70;;;10.80;;
14770;SDS011;7477;45.222;5.688;2023-03-01T02:12:12;15.30;;;11.03;;
14770;SDS011;7477;45.222;5.688;2023-03-01T02:15:34;17.83;;;12.00;;
14770;SDS011;7477;45.222;5.688;2023-03-01T02:18:55;18.17;;;11.90;;
14770;SDS011;7477;45.222;5.688;2023-03-01T02:29:11;15.17;;;11.00;;
14770;SDS011;7477;45.222;5.688;2023-03-01T02:32:30;13.37;;;11.13;;
14770;SDS011;7477;45.222;5.688;2023-03-01T02:35:50;17.40;;;11.53;;
14770;SDS011;7477;45.222;5.688;2023-03-01T02:39:13;14.35;;;10.38;;
14770;SDS011;7477;45.222;5.688;2023-03-01T02:43:00;14.55;;;10.60;;
14770;SDS011;7477;45.222;5.688;2023-03-01T02:46:20;17.07;;;11.30;;
14770;SDS011;7477;45.222;5.688;2023-03-01T02:49:42;17.40;;;12.00;;
14770;SDS011;7477;45.222;5.688;2023-03-01T02:53:02;15.90;;;11.20;;
14770;SDS011;7477;45.222;5.688;2023-03-01T02:56:44;17.80;;;12.70;;
14770;SDS011;7477;45.222;5.688;2023-03-01T03:00:09;18.17;;;12.40;;
14770;SDS011;7477;45.222;5.688;2023-03-01T03:03:39;16.70;;;11.13;;
14770;SDS011;7477;45.222;5.688;2023-03-01T03:06:58;13.70;;;10.53;;
14770;SDS011;7477;45.222;5.688;2023-03-01T03:10:21;14.80;;;11.27;;
14770;SDS011;7477;45.222;5.688;2023-03-01T03:13:43;15.70;;;10.37;;
14770;SDS011;7477;45.222;5.688;2023-03-01T03:17:06;17.83;;;11.77;;
14770;SDS011;7477;45.222;5.688;2023-03-01T03:20:26;21.37;;;12.43;;
14770;SDS011;7477;45.222;5.688;2023-03-01T03:23:47;15.03;;;11.17;;
14770;SDS011;7477;45.222;5.688;2023-03-01T03:27:06;14.07;;;10.33;;
14770;SDS011;7477;45.222;5.688;2023-03-01T03:30:30;13.73;;;10.70;;
14770;SDS011;7477;45.222;5.688;2023-03-01T03:33:49;16.47;;;11.47;;
14770;SDS011;7477;45.222;5.688;2023-03-01T03:37:09;14.57;;;10.67;;
14770;SDS011;7477;45.222;5.688;2023-03-01T03:40:49;15.83;;;11.83;;
14770;SDS011;7477;45.222;5.688;2023-03-01T03:44:09;14.90;;;11.53;;
14770;SDS011;7477;45.222;5.688;2023-03-01T03:47:28;15.00;;;11.03;;
14770;SDS011;7477;45.222;5.688;2023-03-01T03:50:48;19.67;;;12.23;;
14770;SDS011;7477;45.222;5.688;2023-03-01T03:54:09;17.20;;;11.73;;
14770;SDS011;7477;45.222;5.688;2023-03-01T03:57:29;18.27;;;11.03;;
14770;SDS011;7477;45.222;5.688;2023-03-01T04:00:49;20.77;;;11.90;;
14770;SDS011;7477;45.222;5.688;2023-03-01T04:04:16;18.43;;;11.87;;
14770;SDS011;7477;45.222;5.688;2023-03-01T04:07:37;19.30;;;12.70;;
14770;SDS011;7477;45.222;5.688;2023-03-01T04:10:59;20.17;;;12.60;;
14770;SDS011;7477;45.222;5.688;2023-03-01T04:14:39;17.23;;;12.17;;
14770;SDS011;7477;45.222;5.688;2023-03-01T04:17:59;17.30;;;12.43;;
14770;SDS011;7477;45.222;5.688;2023-03-01T04:21:19;18.67;;;12.63;;
14770;SDS011;7477;45.222;5.688;2023-03-01T04:24:38;20.83;;;13.87;;
14770;SDS011;7477;45.222;5.688;2023-03-01T04:27:58;23.43;;;14.30;;
14770;SDS011;7477;45.222;5.688;2023-03-01T04:31:17;21.40;;;13.83;;
14770;SDS011;7477;45.222;5.688;2023-03-01T04:34:39;19.03;;;13.27;;
14770;SDS011;7477;45.222;5.688;2023-03-01T04:37:58;19.27;;;13.40;;
14770;SDS011;7477;45.222;5.688;2023-03-01T04:41:18;19.40;;;13.47;;
14770;SDS011;7477;45.222;5.688;2023-03-01T04:44:39;19.23;;;13.23;;
14770;SDS011;7477;45.222;5.688;2023-03-01T04:47:58;24.13;;;15.00;;
14770;SDS011;7477;45.222;5.688;2023-03-01T04:51:18;22.93;;;14.80;;
14770;SDS011;7477;45.222;5.688;2023-03-01T04:54:37;19.57;;;14.30;;
14770;SDS011;7477;45.222;5.688;2023-03-01T04:57:56;22.13;;;14.47;;
14770;SDS011;7477;45.222;5.688;2023-03-01T05:01:16;21.03;;;14.50;;
14770;SDS011;7477;45.222;5.688;2023-03-01T05:04:38;17.67;;;13.33;;
14770;SDS011;7477;45.222;5.688;2023-03-01T05:07:58;21.97;;;14.37;;
14770;SDS011;7477;45.222;5.688;2023-03-01T05:11:19;20.50;;;14.53;;
14770;SDS011;7477;45.222;5.688;2023-03-01T05:14:38;21.07;;;14.37;;
14770;SDS011;7477;45.222;5.688;2023-03-01T05:17:58;20.90;;;14.67;;
14770;SDS011;7477;45.222;5.688;2023-03-01T05:21:18;19.57;;;13.43;;
14770;SDS011;7477;45.222;5.688;2023-03-01T05:24:37;24.40;;;15.03;;
14770;SDS011;7477;45.222;5.688;2023-03-01T05:27:57;22.25;;;14.80;;
14770;SDS011;7477;45.222;5.688;2023-03-01T05:31:16;19.97;;;14.23;;
14770;SDS011;7477;45.222;5.688;2023-03-01T05:34:35;23.43;;;15.53;;
14770;SDS011;7477;45.222;5.688;2023-03-01T05:37:55;18.95;;;14.07;;
14770;SDS011;7477;45.222;5.688;2023-03-01T05:41:15;22.10;;;15.10;;
14770;SDS011;7477;45.222;5.688;2023-03-01T05:44:35;21.07;;;15.37;;
14770;SDS011;7477;45.222;5.688;2023-03-01T05:47:54;23.23;;;14.27;;
14770;SDS011;7477;45.222;5.688;2023-03-01T05:51:13;21.00;;;14.00;;
14770;SDS011;7477;45.222;5.688;2023-03-01T05:54:33;24.77;;;15.37;;
14770;SDS011;7477;45.222;5.688;2023-03-01T05:57:52;21.63;;;14.37;;
14770;SDS011;7477;45.222;5.688;2023-03-01T06:01:12;19.97;;;14.53;;
14770;SDS011;7477;45.222;5.688;2023-03-01T06:04:31;24.47;;;15.53;;
14770;SDS011;7477;45.222;5.688;2023-03-01T06:07:51;23.00;;;15.87;;
14770;SDS011;7477;45.222;5.688;2023-03-01T06:11:11;27.83;;;16.60;;
14770;SDS011;7477;45.222;5.688;2023-03-01T06:14:30;24.73;;;15.97;;
14770;SDS011;7477;45.222;5.688;2023-03-01T06:17:49;23.13;;;14.80;;
14770;SDS011;7477;45.222;5.688;2023-03-01T06:21:09;23.37;;;15.57;;
14770;SDS011;7477;45.222;5.688;2023-03-01T06:24:28;24.13;;;16.70;;
14770;SDS011;7477;45.222;5.688;2023-03-01T06:27:48;49.10;;;24.70;;
14770;SDS011;7477;45.222;5.688;2023-03-01T06:31:08;69.60;;;33.83;;
14770;SDS011;7477;45.222;5.688;2023-03-01T06:34:28;28.10;;;15.33;;
14770;SDS011;7477;45.222;5.688;2023-03-01T06:37:47;24.80;;;16.90;;
14770;SDS011;7477;45.222;5.688;2023-03-01T06:41:07;23.73;;;15.80;;
14770;SDS011;7477;45.222;5.688;2023-03-01T06:44:26;28.07;;;15.73;;
14770;SDS011;7477;45.222;5.688;2023-03-01T06:47:46;26.97;;;17.70;;
14770;SDS011;7477;45.222;5.688;2023-03-01T06:51:06;27.27;;;15.57;;
14770;SDS011;7477;45.222;5.688;2023-03-01T06:54:25;22.73;;;15.00;;
14770;SDS011;7477;45.222;5.688;2023-03-01T06:57:44;26.40;;;16.13;;
14770;SDS011;7477;45.222;5.688;2023-03-01T07:01:06;30.63;;;16.60;;
14770;SDS011;7477;45.222;5.688;2023-03-01T07:04:26;29.17;;;17.57;;
14770;SDS011;7477;45.222;5.688;2023-03-01T07:07:47;26.30;;;15.33;;
14770;SDS011;7477;45.222;5.688;2023-03-01T07:11:06;26.60;;;16.17;;
14770;SDS011;7477;45.222;5.688;2023-03-01T07:14:26;31.27;;;16.87;;
14770;SDS011;7477;45.222;5.688;2023-03-01T07:17:46;31.57;;;16.07;;
14770;SDS011;7477;45.222;5.688;2023-03-01T07:21:09;33.27;;;16.87;;
14770;SDS011;7477;45.222;5.688;2023-03-01T07:24:31;36.93;;;16.60;;
14770;SDS011;7477;45.222;5.688;2023-03-01T07:27:50;40.53;;;16.53;;
14770;SDS011;7477;45.222;5.688;2023-03-01T07:31:11;44.30;;;17.43;;
14770;SDS011;7477;45.222;5.688;2023-03-01T07:34:30;39.60;;;17.07;;
14770;SDS011;7477;45.222;5.688;2023-03-01T07:37:49;36.07;;;16.30;;
14770;SDS011;7477;45.222;5.688;2023-03-01T07:41:08;30.43;;;16.20;;
14770;SDS011;7477;45.222;5.688;2023-03-01T07:44:27;35.53;;;16.10;;
14770;SDS011;7477;45.222;5.688;2023-03-01T07:47:47;31.43;;;16.70;;
14770;SDS011;7477;45.222;5.688;2023-03-01T07:51:06;25.30;;;16.23;;
14770;SDS011;7477;45.222;5.688;2023-03-01T07:54:26;27.47;;;16.50;;
14770;SDS011;7477;45.222;5.688;2023-03-01T07:57:45;26.17;;;16.57;;
14770;SDS011;7477;45.222;5.688;2023-03-01T08:01:05;24.70;;;15.43;;
14770;SDS011;7477;45.222;5.688;2023-03-01T08:04:25;24.23;;;15.13;;
14770;SDS011;7477;45.222;5.688;2023-03-01T08:07:45;25.17;;;15.57;;
14770;SDS011;7477;45.222;5.688;2023-03-01T08:11:04;24.10;;;15.70;;
14770;SDS011;7477;45.222;5.688;2023-03-01T08:14:25;37.03;;;17.10;;
14770;SDS011;7477;45.222;5.688;2023-03-01T08:17:45;27.93;;;18.40;;
14770;SDS011;7477;45.222;5.688;2023-03-01T08:21:08;30.77;;;16.57;;
14770;SDS011;7477;45.222;5.688;2023-03-01T08:24:29;27.87;;;16.10;;
14770;SDS011;7477;45.222;5.688;2023-03-01T08:27:48;30.57;;;16.57;;
14770;SDS011;7477;45.222;5.688;2023-03-01T08:34:39;25.50;;;15.97;;
14770;SDS011;7477;45.222;5.688;2023-03-01T08:37:58;32.30;;;16.97;;
14770;SDS011;7477;45.222;5.688;2023-03-01T08:41:18;37.37;;;20.40;;
14770;SDS011;7477;45.222;5.688;2023-03-01T08:44:37;39.40;;;22.70;;
14770;SDS011;7477;45.222;5.688;2023-03-01T08:47:56;29.17;;;18.77;;
14770;SDS011;7477;45.222;5.688;2023-03-01T08:51:16;37.07;;;21.17;;
14770;SDS011;7477;45.222;5.688;2023-03-01T08:54:36;25.80;;;16.20;;
14770;SDS011;7477;45.222;5.688;2023-03-01T08:57:55;33.70;;;18.97;;
14770;SDS011;7477;45.222;5.688;2023-03-01T09:01:18;29.40;;;16.83;;
14770;SDS011;7477;45.222;5.688;2023-03-01T09:04:38;25.37;;;16.33;;
14770;SDS011;7477;45.222;5.688;2023-03-01T09:07:57;23.97;;;15.30;;
14770;SDS011;7477;45.222;5.688;2023-03-01T09:11:18;27.27;;;17.37;;
14770;SDS011;7477;45.222;5.688;2023-03-01T09:14:39;25.80;;;17.03;;
14770;SDS011;7477;45.222;5.688;2023-03-01T09:17:59;30.10;;;18.17;;
14770;SDS011;7477;45.222;5.688;2023-03-01T09:21:20;27.10;;;17.93;;
14770;SDS011;7477;45.222;5.688;2023-03-01T09:24:41;28.07;;;17.70;;
14770;SDS011;7477;45.222;5.688;2023-03-01T09:28:01;29.87;;;17.80;;
14770;SDS011;7477;45.222;5.688;2023-03-01T09:31:21;28.73;;;18.00;;
14770;SDS011;7477;45.222;5.688;2023-03-01T09:34:41;30.53;;;19.23;;
14770;SDS011;7477;45.222;5.688;2023-03-01T09:38:19;28.90;;;17.67;;
14770;SDS011;7477;45.222;5.688;2023-03-01T09:45:11;34.70;;;19.00;;
14770;SDS011;7477;45.222;5.688;2023-03-01T09:48:43;29.77;;;18.40;;
14770;SDS011;7477;45.222;5.688;2023-03-01T09:52:21;28.37;;;18.13;;
14770;SDS011;7477;45.222;5.688;2023-03-01T09:55:48;30.57;;;18.20;;
14770;SDS011;7477;45.222;5.688;2023-03-01T09:59:29;33.37;;;17.37;;
14770;SDS011;7477;45.222;5.688;2023-03-01T10:10:33;28.10;;;18.80;;
14770;SDS011;7477;45.222;5.688;2023-03-01T10:21:02;29.93;;;18.90;;
14770;SDS011;7477;45.222;5.688;2023-03-01T10:24:26;32.13;;;20.00;;
14770;SDS011;7477;45.222;5.688;2023-03-01T10:27:54;30.10;;;18.87;;
14770;SDS011;7477;45.222;5.688;2023-03-01T10:31:19;38.97;;;19.13;;
14770;SDS011;7477;45.222;5.688;2023-03-01T10:34:46;32.37;;;19.37;;
14770;SDS011;7477;45.222;5.688;2023-03-01T10:38:07;28.20;;;17.20;;
14770;SDS011;7477;45.222;5.688;2023-03-01T10:41:27;31.50;;;19.97;;
14770;SDS011;7477;45.222;5.688;2023-03-01T10:44:48;29.10;;;18.93;;
14770;SDS011;7477;45.222;5.688;2023-03-01T10:51:27;35.67;;;20.80;;
14770;SDS011;7477;45.222;5.688;2023-03-01T10:54:53;37.20;;;20.27;;
14770;SDS011;7477;45.222;5.688;2023-03-01T10:58:18;28.00;;;17.77;;
14770;SDS011;7477;45.222;5.688;2023-03-01T11:01:39;36.70;;;19.53;;
14770;SDS011;7477;45.222;5.688;2023-03-01T11:08:28;28.27;;;17.93;;
14770;SDS011;7477;45.222;5.688;2023-03-01T11:12:00;29.50;;;18.87;;
14770;SDS011;7477;45.222;5.688;2023-03-01T11:15:23;27.97;;;18.07;;
14770;SDS011;7477;45.222;5.688;2023-03-01T11:18:45;35.60;;;20.00;;
14770;SDS011;7477;45.222;5.688;2023-03-01T11:22:19;38.83;;;19.53;;
14770;SDS011;7477;45.222;5.688;2023-03-01T11:25:41;28.87;;;17.40;;
14770;SDS011;7477;45.222;5.688;2023-03-01T11:29:03;28.27;;;18.47;;
14770;SDS011;7477;45.222;5.688;2023-03-01T11:32:26;27.23;;;18.50;;
14770;SDS011;7477;45.222;5.688;2023-03-01T11:35:58;29.50;;;18.10;;
14770;SDS011;7477;45.222;5.688;2023-03-01T11:39:39;36.87;;;18.90;;
14770;SDS011;7477;45.222;5.688;2023-03-01T11:47:12;35.03;;;20.43;;
14770;SDS011;7477;45.222;5.688;2023-03-01T11:57:43;28.17;;;17.83;;
14770;SDS011;7477;45.222;5.688;2023-03-01T12:05:09;28.20;;;18.20;;
14770;SDS011;7477;45.222;5.688;2023-03-01T12:08:56;27.70;;;18.27;;
14770;SDS011;7477;45.222;5.688;2023-03-01T12:12:30;29.00;;;17.90;;
14770;SDS011;7477;45.222;5.688;2023-03-01T12:16:09;30.27;;;19.23;;
14770;SDS011;7477;45.222;5.688;2023-03-01T12:31:08;30.60;;;18.08;;
14770;SDS011;7477;45.222;5.688;2023-03-01T12:38:40;29.93;;;18.13;;
14770;SDS011;7477;45.222;5.688;2023-03-01T12:49:40;30.52;;;18.70;;
14770;SDS011;7477;45.222;5.688;2023-03-01T12:53:03;33.35;;;20.15;;
14770;SDS011;7477;45.222;5.688;2023-03-01T12:56:24;28.58;;;17.98;;
14770;SDS011;7477;45.222;5.688;2023-03-01T13:17:41;31.13;;;18.40;;
14770;SDS011;7477;45.222;5.688;2023-03-01T13:21:04;30.07;;;18.77;;
14770;SDS011;7477;45.222;5.688;2023-03-01T13:24:35;31.15;;;18.42;;
14770;SDS011;7477;45.222;5.688;2023-03-01T13:31:56;29.58;;;17.17;;
14770;SDS011;7477;45.222;5.688;2023-03-01T13:46:08;31.53;;;18.40;;
14770;SDS011;7477;45.222;5.688;2023-03-01T13:53:18;31.70;;;18.77;;
14770;SDS011;7477;45.222;5.688;2023-03-01T13:56:39;27.67;;;17.73;;
14770;SDS011;7477;45.222;5.688;2023-03-01T13:59:59;22.48;;;16.40;;
14770;SDS011;7477;45.222;5.688;2023-03-01T14:03:19;35.45;;;20.90;;
14770;SDS011;7477;45.222;5.688;2023-03-01T14:06:39;30.35;;;18.75;;
14770;SDS011;7477;45.222;5.688;2023-03-01T14:09:59;26.95;;;17.25;;
14770;SDS011;7477;45.222;5.688;2023-03-01T14:13:25;25.33;;;17.40;;
14770;SDS011;7477;45.222;5.688;2023-03-01T14:20:32;29.75;;;17.80;;
14770;SDS011;7477;45.222;5.688;2023-03-01T14:24:01;27.63;;;17.77;;
14770;SDS011;7477;45.222;5.688;2023-03-01T14:27:23;29.10;;;16.95;;
14770;SDS011;7477;45.222;5.688;2023-03-01T14:31:02;29.65;;;17.77;;
14770;SDS011;7477;45.222;5.688;2023-03-01T14:34:44;27.20;;;17.27;;
14770;SDS011;7477;45.222;5.688;2023-03-01T14:38:05;26.87;;;17.03;;
14770;SDS011;7477;45.222;5.688;2023-03-01T14:41:25;26.53;;;17.37;;
14770;SDS011;7477;45.222;5.688;2023-03-01T14:44:47;29.42;;;17.67;;
14770;SDS011;7477;45.222;5.688;2023-03-01T14:48:10;30.83;;;17.60;;
14770;SDS011;7477;45.222;5.688;2023-03-01T14:51:35;29.20;;;17.60;;
14770;SDS011;7477;45.222;5.688;2023-03-01T14:54:59;25.63;;;16.93;;
14770;SDS011;7477;45.222;5.688;2023-03-01T14:58:21;28.03;;;17.83;;
14770;SDS011;7477;45.222;5.688;2023-03-01T15:01:42;33.08;;;18.65;;
14770;SDS011;7477;45.222;5.688;2023-03-01T15:05:03;34.97;;;19.77;;
14770;SDS011;7477;45.222;5.688;2023-03-01T15:08:25;29.70;;;18.95;;
14770;SDS011;7477;45.222;5.688;2023-03-01T15:11:51;29.57;;;18.67;;
14770;SDS011;7477;45.222;5.688;2023-03-01T15:15:21;30.70;;;18.90;;
14770;SDS011;7477;45.222;5.688;2023-03-01T15:18:44;28.77;;;18.30;;
14770;SDS011;7477;45.222;5.688;2023-03-01T15:22:12;29.73;;;18.77;;
14770;SDS011;7477;45.222;5.688;2023-03-01T15:25:35;37.63;;;20.52;;
14770;SDS011;7477;45.222;5.688;2023-03-01T15:28:58;32.70;;;19.43;;
14770;SDS011;7477;45.222;5.688;2023-03-01T15:32:26;34.25;;;19.40;;
14770;SDS011;7477;45.222;5.688;2023-03-01T15:35:49;34.07;;;18.47;;
14770;SDS011;7477;45.222;5.688;2023-03-01T15:43:37;28.63;;;19.23;;
14770;SDS011;7477;45.222;5.688;2023-03-01T15:47:06;28.07;;;17.67;;
14770;SDS011;7477;45.222;5.688;2023-03-01T15:50:44;31.37;;;17.70;;
14770;SDS011;7477;45.222;5.688;2023-03-01T15:54:18;30.63;;;18.20;;
14770;SDS011;7477;45.222;5.688;2023-03-01T15:57:40;30.53;;;18.43;;
14770;SDS011;7477;45.222;5.688;2023-03-01T16:00:59;29.07;;;18.03;;
14770;SDS011;7477;45.222;5.688;2023-03-01T16:04:19;30.60;;;17.47;;
14770;SDS011;7477;45.222;5.688;2023-03-01T16:07:41;26.87;;;17.67;;
14770;SDS011;7477;45.222;5.688;2023-03-01T16:11:00;29.93;;;17.80;;
14770;SDS011;7477;45.222;5.688;2023-03-01T16:14:23;25.20;;;17.43;;
14770;SDS011;7477;45.222;5.688;2023-03-01T16:17:43;29.63;;;17.67;;
14770;SDS011;7477;45.222;5.688;2023-03-01T16:21:03;27.37;;;18.37;;
14770;SDS011;7477;45.222;5.688;2023-03-01T16:24:22;33.27;;;18.43;;
14770;SDS011;7477;45.222;5.688;2023-03-01T16:27:42;32.53;;;19.50;;
14770;SDS011;7477;45.222;5.688;2023-03-01T16:31:02;27.43;;;18.67;;
14770;SDS011;7477;45.222;5.688;2023-03-01T16:34:23;31.93;;;18.20;;
14770;SDS011;7477;45.222;5.688;2023-03-01T16:37:42;26.23;;;17.97;;
14770;SDS011;7477;45.222;5.688;2023-03-01T16:41:02;31.80;;;19.80;;
14770;SDS011;7477;45.222;5.688;2023-03-01T16:44:22;29.37;;;19.00;;
14770;SDS011;7477;45.222;5.688;2023-03-01T16:47:41;31.20;;;19.03;;
14770;SDS011;7477;45.222;5.688;2023-03-01T16:51:01;33.20;;;18.10;;
14770;SDS011;7477;45.222;5.688;2023-03-01T16:54:20;26.47;;;17.80;;
14770;SDS011;7477;45.222;5.688;2023-03-01T16:57:39;30.03;;;18.37;;
14770;SDS011;7477;45.222;5.688;2023-03-01T17:04:26;30.90;;;19.93;;
14770;SDS011;7477;45.222;5.688;2023-03-01T17:07:45;31.47;;;19.03;;
14770;SDS011;7477;45.222;5.688;2023-03-01T17:14:29;29.07;;;18.40;;
14770;SDS011;7477;45.222;5.688;2023-03-01T17:17:48;28.80;;;18.57;;
14770;SDS011;7477;45.222;5.688;2023-03-01T17:21:09;30.80;;;18.50;;
14770;SDS011;7477;45.222;5.688;2023-03-01T17:24:36;31.40;;;20.07;;
14770;SDS011;7477;45.222;5.688;2023-03-01T17:27:57;30.87;;;18.70;;
14770;SDS011;7477;45.222;5.688;2023-03-01T17:31:17;31.93;;;18.30;;
14770;SDS011;7477;45.222;5.688;2023-03-01T17:34:37;28.77;;;18.27;;
14770;SDS011;7477;45.222;5.688;2023-03-01T17:37:56;30.83;;;19.63;;
14770;SDS011;7477;45.222;5.688;2023-03-01T17:41:15;28.57;;;18.57;;
14770;SDS011;7477;45.222;5.688;2023-03-01T17:44:36;33.60;;;19.93;;
14770;SDS011;7477;45.222;5.688;2023-03-01T17:47:56;28.93;;;19.43;;
14770;SDS011;7477;45.222;5.688;2023-03-01T17:51:15;44.10;;;26.53;;
14770;SDS011;7477;45.222;5.688;2023-03-01T17:54:35;34.63;;;20.60;;
14770;SDS011;7477;45.222;5.688;2023-03-01T17:57:54;29.20;;;18.73;;
14770;SDS011;7477;45.222;5.688;2023-03-01T18:01:18;36.17;;;20.90;;
14770;SDS011;7477;45.222;5.688;2023-03-01T18:04:38;34.43;;;21.07;;
14770;SDS011;7477;45.222;5.688;2023-03-01T18:07:57;32.13;;;19.53;;
14770;SDS011;7477;45.222;5.688;2023-03-01T18:11:17;29.60;;;19.37;;
14770;SDS011;7477;45.222;5.688;2023-03-01T18:14:37;29.40;;;20.00;;
14770;SDS011;7477;45.222;5.688;2023-03-01T18:17:56;27.23;;;17.60;;
14770;SDS011;7477;45.222;5.688;2023-03-01T18:21:15;32.77;;;19.70;;
14770;SDS011;7477;45.222;5.688;2023-03-01T18:24:38;32.73;;;19.60;;
14770;SDS011;7477;45.222;5.688;2023-03-01T18:27:58;30.23;;;18.10;;
14770;SDS011;7477;45.222;5.688;2023-03-01T18:31:19;33.10;;;20.03;;
14770;SDS011;7477;45.222;5.688;2023-03-01T18:34:40;28.77;;;18.13;;
14770;SDS011;7477;45.222;5.688;2023-03-01T18:37:59;31.23;;;19.97;;
14770;SDS011;7477;45.222;5.688;2023-03-01T18:41:18;28.27;;;18.43;;
14770;SDS011;7477;45.222;5.688;2023-03-01T18:44:38;30.73;;;18.70;;
14770;SDS011;7477;45.222;5.688;2023-03-01T18:47:57;31.90;;;20.93;;
14770;SDS011;7477;45.222;5.688;2023-03-01T18:51:17;30.30;;;20.07;;
14770;SDS011;7477;45.222;5.688;2023-03-01T18:54:38;29.03;;;18.87;;
14770;SDS011;7477;45.222;5.688;2023-03-01T18:57:57;32.53;;;20.13;;
14770;SDS011;7477;45.222;5.688;2023-03-01T19:01:18;30.73;;;18.93;;
14770;SDS011;7477;45.222;5.688;2023-03-01T19:04:38;30.57;;;19.87;;
14770;SDS011;7477;45.222;5.688;2023-03-01T19:07:58;33.37;;;18.97;;
14770;SDS011;7477;45.222;5.688;2023-03-01T19:11:17;32.63;;;19.73;;
14770;SDS011;7477;45.222;5.688;2023-03-01T19:14:36;32.60;;;21.20;;
14770;SDS011;7477;45.222;5.688;2023-03-01T19:17:56;30.47;;;20.03;;
14770;SDS011;7477;45.222;5.688;2023-03-01T19:21:17;36.70;;;21.90;;
14770;SDS011;7477;45.222;5.688;2023-03-01T19:24:38;31.53;;;19.87;;
14770;SDS011;7477;45.222;5.688;2023-03-01T19:27:57;31.83;;;20.60;;
14770;SDS011;7477;45.222;5.688;2023-03-01T19:31:20;30.50;;;20.10;;
14770;SDS011;7477;45.222;5.688;2023-03-01T19:34:43;32.00;;;20.90;;
14770;SDS011;7477;45.222;5.688;2023-03-01T19:38:04;35.67;;;21.57;;
14770;SDS011;7477;45.222;5.688;2023-03-01T19:41:23;32.40;;;20.17;;
14770;SDS011;7477;45.222;5.688;2023-03-01T19:44:42;31.57;;;20.87;;
14770;SDS011;7477;45.222;5.688;2023-03-01T19:48:02;34.40;;;21.10;;
14770;SDS011;7477;45.222;5.688;2023-03-01T19:51:22;34.37;;;21.47;;
14770;SDS011;7477;45.222;5.688;2023-03-01T19:54:41;36.40;;;21.07;;
14770;SDS011;7477;45.222;5.688;2023-03-01T19:58:01;35.97;;;20.97;;
14770;SDS011;7477;45.222;5.688;2023-03-01T20:01:20;34.17;;;21.17;;
14770;SDS011;7477;45.222;5.688;2023-03-01T20:04:39;34.30;;;21.27;;
14770;SDS011;7477;45.222;5.688;2023-03-01T20:07:58;34.30;;;21.77;;
14770;SDS011;7477;45.222;5.688;2023-03-01T20:11:18;32.93;;;21.27;;
14770;SDS011;7477;45.222;5.688;2023-03-01T20:14:39;36.93;;;21.40;;
14770;SDS011;7477;45.222;5.688;2023-03-01T20:17:58;33.07;;;21.80;;
14770;SDS011;7477;45.222;5.688;2023-03-01T20:21:17;30.53;;;20.93;;
14770;SDS011;7477;45.222;5.688;2023-03-01T20:24:38;34.43;;;22.43;;
14770;SDS011;7477;45.222;5.688;2023-03-01T20:27:58;35.93;;;21.97;;
14770;SDS011;7477;45.222;5.688;2023-03-01T20:31:18;34.83;;;21.93;;
14770;SDS011;7477;45.222;5.688;2023-03-01T20:34:39;33.53;;;20.88;;
14770;SDS011;7477;45.222;5.688;2023-03-01T20:37:58;32.77;;;21.93;;
14770;SDS011;7477;45.222;5.688;2023-03-01T20:41:17;33.57;;;21.67;;
14770;SDS011;7477;45.222;5.688;2023-03-01T20:44:37;38.40;;;21.77;;
14770;SDS011;7477;45.222;5.688;2023-03-01T20:48:01;37.67;;;22.07;;
14770;SDS011;7477;45.222;5.688;2023-03-01T20:51:21;32.90;;;20.57;;
14770;SDS011;7477;45.222;5.688;2023-03-01T20:54:40;32.17;;;20.52;;
14770;SDS011;7477;45.222;5.688;2023-03-01T20:57:59;35.20;;;21.03;;
14770;SDS011;7477;45.222;5.688;2023-03-01T21:01:19;33.83;;;20.47;;
14770;SDS011;7477;45.222;5.688;2023-03-01T21:04:39;38.20;;;23.57;;
14770;SDS011;7477;45.222;5.688;2023-03-01T21:07:59;40.03;;;22.70;;
14770;SDS011;7477;45.222;5.688;2023-03-01T21:11:20;33.37;;;21.43;;
14770;SDS011;7477;45.222;5.688;2023-03-01T21:14:42;40.10;;;22.37;;
14770;SDS011;7477;45.222;5.688;2023-03-01T21:18:01;37.92;;;22.73;;
14770;SDS011;7477;45.222;5.688;2023-03-01T21:21:21;39.13;;;22.63;;
14770;SDS011;7477;45.222;5.688;2023-03-01T21:24:41;36.13;;;22.80;;
14770;SDS011;7477;45.222;5.688;2023-03-01T21:28:00;40.53;;;23.60;;
14770;SDS011;7477;45.222;5.688;2023-03-01T21:31:21;31.57;;;22.87;;
14770;SDS011;7477;45.222;5.688;2023-03-01T21:34:49;34.97;;;21.87;;
14770;SDS011;7477;45.222;5.688;2023-03-01T21:38:08;34.60;;;22.00;;
14770;SDS011;7477;45.222;5.688;2023-03-01T21:41:29;44.08;;;25.75;;
14770;SDS011;7477;45.222;5.688;2023-03-01T21:44:50;36.10;;;23.88;;
14770;SDS011;7477;45.222;5.688;2023-03-01T21:48:09;40.50;;;23.90;;
14770;SDS011;7477;45.222;5.688;2023-03-01T21:51:28;31.97;;;20.43;;
14770;SDS011;7477;45.222;5.688;2023-03-01T21:54:49;35.77;;;21.77;;
14770;SDS011;7477;45.222;5.688;2023-03-01T21:58:09;40.07;;;22.63;;
14770;SDS011;7477;45.222;5.688;2023-03-01T22:01:28;37.67;;;22.33;;
14770;SDS011;7477;45.222;5.688;2023-03-01T22:04:50;32.83;;;20.40;;
14770;SDS011;7477;45.222;5.688;2023-03-01T22:08:15;32.28;;;21.13;;